sensor_id;sensor_type;location;lat;lon;timestamp;pressure;altitude;pressure_sealevel;temperature;humidity
72636;BME280;60679;48.888;15.544;2024-03-07T00:00:14;96531.78;;;2.85;90.99
72636;BME280;60679;48.888;15.544;2024-03-07T00:02:45;96525.13;;;2.81;90.96
72636;BME280;60679;48.888;15.544;2024-03-07T00:05:13;96527.47;;;2.84;91.06
72636;BME280;60679;48.888;15.544;2024-03-07T00:07:39;96527.47;;;2.84;90.88
72636;BME280;60679;48.888;15.544;2024-03-07T00:10:05;96535.13;;;2.87;90.77
72636;BME280;60679;48.888;15.544;2024-03-07T00:12:33;96532.63;;;2.86;91.01
72636;BME280;60679;48.888;15.544;2024-03-07T00:15:03;96525.97;;;2.82;90.89
72636;BME280;60679;48.888;15.544;2024-03-07T00:17:29;96531.13;;;2.83;90.97
72636;BME280;60679;48.888;15.544;2024-03-07T00:19:55;96540.28;;;2.89;90.96
72636;BME280;60679;48.888;15.544;2024-03-07T00:22:21;96537.13;;;2.85;90.90
72636;BME280;60679;48.888;15.544;2024-03-07T00:24:50;96539.63;;;2.87;90.94
72636;BME280;60679;48.888;15.544;2024-03-07T00:27:19;96529.31;;;2.84;90.93
72636;BME280;60679;48.888;15.544;2024-03-07T00:29:46;96529.31;;;2.84;90.97
72636;BME280;60679;48.888;15.544;2024-03-07T00:32:19;96540.63;;;2.86;90.95
72636;BME280;60679;48.888;15.544;2024-03-07T00:34:44;96531.47;;;2.80;90.83
72636;BME280;60679;48.888;15.544;2024-03-07T00:37:10;96532.81;;;2.84;90.81
72636;BME280;60679;48.888;15.544;2024-03-07T00:39:35;96526.28;;;2.87;90.87
72636;BME280;60679;48.888;15.544;2024-03-07T00:42:01;96523.97;;;2.84;90.84
72636;BME280;60679;48.888;15.544;2024-03-07T00:44:27;96521.94;;;2.86;91.06
72636;BME280;60679;48.888;15.544;2024-03-07T00:46:53;96505.81;;;2.87;90.85
72636;BME280;60679;48.888;15.544;2024-03-07T00:49:18;96517.28;;;2.88;90.85
72636;BME280;60679;48.888;15.544;2024-03-07T00:51:43;96510.63;;;2.84;90.89
72636;BME280;60679;48.888;15.544;2024-03-07T00:54:09;96517.47;;;2.86;91.10
72636;BME280;60679;48.888;15.544;2024-03-07T00:56:38;96513.63;;;2.89;91.00
72636;BME280;60679;48.888;15.544;2024-03-07T00:59:03;96515.63;;;2.87;90.68
72636;BME280;60679;48.888;15.544;2024-03-07T01:01:29;96516.28;;;2.89;90.99
72636;BME280;60679;48.888;15.544;2024-03-07T01:03:54;96506.78;;;2.86;90.88
72636;BME280;60679;48.888;15.544;2024-03-07T01:06:20;96520.44;;;2.91;90.89
72636;BME280;60679;48.888;15.544;2024-03-07T01:08:45;96514.78;;;2.95;91.00
72636;BME280;60679;48.888;15.544;2024-03-07T01:11:11;96520.94;;;2.95;91.06
72636;BME280;60679;48.888;15.544;2024-03-07T01:13:38;96510.81;;;2.90;90.87
72636;BME280;60679;48.888;15.544;2024-03-07T01:16:04;96516.78;;;2.92;90.92
72636;BME280;60679;48.888;15.544;2024-03-07T01:18:30;96511.59;;;2.91;90.89
72636;BME280;60679;48.888;15.544;2024-03-07T01:20:59;96508.13;;;2.90;90.83
72636;BME280;60679;48.888;15.544;2024-03-07T01:23:24;96509.28;;;2.88;90.96
72636;BME280;60679;48.888;15.544;2024-03-07T01:25:50;96502.63;;;2.84;91.00
72636;BME280;60679;48.888;15.544;2024-03-07T01:28:15;96516.13;;;2.90;90.89
72636;BME280;60679;48.888;15.544;2024-03-07T01:30:42;96508.81;;;2.84;90.87
72636;BME280;60679;48.888;15.544;2024-03-07T01:33:08;96508.81;;;2.84;91.06
72636;BME280;60679;48.888;15.544;2024-03-07T01:35:33;96511.78;;;2.89;90.86
72636;BME280;60679;48.888;15.544;2024-03-07T01:37:59;96510.28;;;2.87;91.03
72636;BME280;60679;48.888;15.544;2024-03-07T01:40:24;96507.28;;;2.90;91.08
72636;BME280;60679;48.888;15.544;2024-03-07T01:42:50;96501.47;;;2.86;91.08
72636;BME280;60679;48.888;15.544;2024-03-07T01:45:16;96491.31;;;2.82;90.96
72636;BME280;60679;48.888;15.544;2024-03-07T01:47:43;96500.81;;;2.84;90.81
72636;BME280;60679;48.888;15.544;2024-03-07T01:50:09;96496.47;;;2.83;91.08
72636;BME280;60679;48.888;15.544;2024-03-07T01:52:36;96495.63;;;2.83;91.02
72636;BME280;60679;48.888;15.544;2024-03-07T01:55:04;96496.31;;;2.85;91.08
72636;BME280;60679;48.888;15.544;2024-03-07T01:57:30;96494.78;;;2.82;91.05
72636;BME280;60679;48.888;15.544;2024-03-07T02:00:00;96494.78;;;2.82;91.22
72636;BME280;60679;48.888;15.544;2024-03-07T02:02:32;96488.66;;;2.82;91.04
72636;BME280;60679;48.888;15.544;2024-03-07T02:05:00;96481.31;;;2.76;90.95
72636;BME280;60679;48.888;15.544;2024-03-07T02:07:25;96482.31;;;2.75;90.89
72636;BME280;60679;48.888;15.544;2024-03-07T02:09:59;96485.97;;;2.74;90.97
72636;BME280;60679;48.888;15.544;2024-03-07T02:12:25;96485.16;;;2.73;90.98
72636;BME280;60679;48.888;15.544;2024-03-07T02:14:51;96485.31;;;2.72;90.93
72636;BME280;60679;48.888;15.544;2024-03-07T02:17:16;96482.84;;;2.70;90.89
72636;BME280;60679;48.888;15.544;2024-03-07T02:19:42;96483.00;;;2.69;90.86
72636;BME280;60679;48.888;15.544;2024-03-07T02:22:07;96495.16;;;2.71;90.86
72636;BME280;60679;48.888;15.544;2024-03-07T02:24:32;96482.34;;;2.67;91.03
72636;BME280;60679;48.888;15.544;2024-03-07T02:26:58;96479.03;;;2.65;90.80
72636;BME280;60679;48.888;15.544;2024-03-07T02:29:26;96487.50;;;2.60;90.84
72636;BME280;60679;48.888;15.544;2024-03-07T02:31:52;96483.03;;;2.53;90.95
72636;BME280;60679;48.888;15.544;2024-03-07T02:34:17;96479.34;;;2.46;90.82
72636;BME280;60679;48.888;15.544;2024-03-07T02:36:44;96479.38;;;2.38;90.76
72636;BME280;60679;48.888;15.544;2024-03-07T02:39:09;96479.72;;;2.26;90.93
72636;BME280;60679;48.888;15.544;2024-03-07T02:41:35;96473.56;;;2.18;90.71
72636;BME280;60679;48.888;15.544;2024-03-07T02:44:01;96477.06;;;2.10;90.90
72636;BME280;60679;48.888;15.544;2024-03-07T02:46:29;96479.72;;;2.02;90.80
72636;BME280;60679;48.888;15.544;2024-03-07T02:48:54;96477.88;;;1.87;90.61
72636;BME280;60679;48.888;15.544;2024-03-07T02:51:20;96484.88;;;1.80;90.84
72636;BME280;60679;48.888;15.544;2024-03-07T02:53:45;96486.50;;;1.72;90.98
72636;BME280;60679;48.888;15.544;2024-03-07T02:56:11;96480.50;;;1.62;90.82
72636;BME280;60679;48.888;15.544;2024-03-07T02:58:36;96484.13;;;1.53;90.81
72636;BME280;60679;48.888;15.544;2024-03-07T03:01:02;96476.81;;;1.47;90.83
72636;BME280;60679;48.888;15.544;2024-03-07T03:03:31;96483.31;;;1.53;91.14
72636;BME280;60679;48.888;15.544;2024-03-07T03:05:57;96482.50;;;1.52;90.96
72636;BME280;60679;48.888;15.544;2024-03-07T03:08:23;96486.97;;;1.52;90.99
72636;BME280;60679;48.888;15.544;2024-03-07T03:10:49;96480.47;;;1.46;91.14
72636;BME280;60679;48.888;15.544;2024-03-07T03:13:16;96478.47;;;1.48;91.12
72636;BME280;60679;48.888;15.544;2024-03-07T03:15:43;96484.78;;;1.47;91.03
72636;BME280;60679;48.888;15.544;2024-03-07T03:18:08;96486.16;;;1.59;91.00
72636;BME280;60679;48.888;15.544;2024-03-07T03:20:38;96485.31;;;1.67;91.17
72636;BME280;60679;48.888;15.544;2024-03-07T03:23:07;96482.53;;;1.77;91.05
72636;BME280;60679;48.888;15.544;2024-03-07T03:25:36;96490.19;;;1.96;91.29
72636;BME280;60679;48.888;15.544;2024-03-07T03:28:04;96483.72;;;2.06;91.28
72636;BME280;60679;48.888;15.544;2024-03-07T03:30:30;96485.88;;;2.19;91.16
72636;BME280;60679;48.888;15.544;2024-03-07T03:32:55;96490.38;;;2.26;91.22
72636;BME280;60679;48.888;15.544;2024-03-07T03:35:21;96489.72;;;2.32;90.96
72636;BME280;60679;48.888;15.544;2024-03-07T03:37:46;96492.38;;;2.32;91.11
72636;BME280;60679;48.888;15.544;2024-03-07T03:40:12;96490.38;;;2.34;91.00
72636;BME280;60679;48.888;15.544;2024-03-07T03:42:39;96492.69;;;2.38;91.07
72636;BME280;60679;48.888;15.544;2024-03-07T03:45:07;96494.38;;;2.39;91.02
72636;BME280;60679;48.888;15.544;2024-03-07T03:47:37;96484.03;;;2.36;91.02
72636;BME280;60679;48.888;15.544;2024-03-07T03:50:07;96485.53;;;2.38;90.89
72636;BME280;60679;48.888;15.544;2024-03-07T03:52:34;96486.72;;;2.36;90.82
72636;BME280;60679;48.888;15.544;2024-03-07T03:55:05;96492.53;;;2.39;90.95
72636;BME280;60679;48.888;15.544;2024-03-07T03:57:41;96496.03;;;2.40;90.98
72636;BME280;60679;48.888;15.544;2024-03-07T04:00:09;96484.88;;;2.36;91.20
72636;BME280;60679;48.888;15.544;2024-03-07T04:02:47;96483.91;;;2.37;91.06
72636;BME280;60679;48.888;15.544;2024-03-07T04:05:14;96474.72;;;2.31;90.94
72636;BME280;60679;48.888;15.544;2024-03-07T04:07:41;96476.91;;;2.36;90.98
72636;BME280;60679;48.888;15.544;2024-03-07T04:10:10;96479.56;;;2.28;90.74
72636;BME280;60679;48.888;15.544;2024-03-07T04:12:37;96487.38;;;2.13;90.92
72636;BME280;60679;48.888;15.544;2024-03-07T04:15:04;96467.72;;;1.90;90.75
72636;BME280;60679;48.888;15.544;2024-03-07T04:17:30;96486.53;;;1.81;90.55
72636;BME280;60679;48.888;15.544;2024-03-07T04:19:56;96490.19;;;1.71;90.73
72636;BME280;60679;48.888;15.544;2024-03-07T04:22:24;96479.16;;;1.58;90.73
72636;BME280;60679;48.888;15.544;2024-03-07T04:24:49;96489.78;;;1.58;90.92
72636;BME280;60679;48.888;15.544;2024-03-07T04:27:19;96472.19;;;1.57;91.01
72636;BME280;60679;48.888;15.544;2024-03-07T04:29:45;96485.00;;;1.78;91.39
72636;BME280;60679;48.888;15.544;2024-03-07T04:32:13;96469.41;;;1.91;91.33
72636;BME280;60679;48.888;15.544;2024-03-07T04:34:38;96475.06;;;2.04;91.06
72636;BME280;60679;48.888;15.544;2024-03-07T04:37:04;96464.25;;;2.06;91.10
72636;BME280;60679;48.888;15.544;2024-03-07T04:39:30;96455.25;;;2.07;90.92
72636;BME280;60679;48.888;15.544;2024-03-07T04:42:02;96465.91;;;2.07;91.05
72636;BME280;60679;48.888;15.544;2024-03-07T04:44:28;96474.41;;;2.02;91.02
72636;BME280;60679;48.888;15.544;2024-03-07T04:46:54;96478.56;;;2.05;90.97
72636;BME280;60679;48.888;15.544;2024-03-07T04:49:27;96479.41;;;2.05;91.37
72636;BME280;60679;48.888;15.544;2024-03-07T04:51:55;96479.53;;;2.04;91.10
72636;BME280;60679;48.888;15.544;2024-03-07T04:54:22;96478.06;;;2.01;90.99
72636;BME280;60679;48.888;15.544;2024-03-07T04:56:49;96482.06;;;2.05;91.11
72636;BME280;60679;48.888;15.544;2024-03-07T04:59:15;96482.72;;;2.07;91.03
72636;BME280;60679;48.888;15.544;2024-03-07T05:01:42;96461.09;;;2.02;91.15
72636;BME280;60679;48.888;15.544;2024-03-07T05:04:07;96478.22;;;2.08;90.98
72636;BME280;60679;48.888;15.544;2024-03-07T05:06:34;96476.72;;;2.13;91.11
72636;BME280;60679;48.888;15.544;2024-03-07T05:09:03;96478.56;;;2.13;91.09
72636;BME280;60679;48.888;15.544;2024-03-07T05:11:36;96478.22;;;2.16;91.15
72636;BME280;60679;48.888;15.544;2024-03-07T05:14:02;96482.56;;;2.17;91.08
72636;BME280;60679;48.888;15.544;2024-03-07T05:16:29;96472.41;;;2.12;91.14
72636;BME280;60679;48.888;15.544;2024-03-07T05:18:55;96476.41;;;2.16;91.04
72636;BME280;60679;48.888;15.544;2024-03-07T05:21:27;96470.56;;;2.21;91.12
72636;BME280;60679;48.888;15.544;2024-03-07T05:24:13;96488.53;;;2.27;90.92
72636;BME280;60679;48.888;15.544;2024-03-07T05:26:38;96487.06;;;2.24;90.90
72636;BME280;60679;48.888;15.544;2024-03-07T05:29:09;96490.56;;;2.25;91.14
72636;BME280;60679;48.888;15.544;2024-03-07T05:31:36;96491.38;;;2.25;90.95
72636;BME280;60679;48.888;15.544;2024-03-07T05:34:03;96488.88;;;2.24;90.88
72636;BME280;60679;48.888;15.544;2024-03-07T05:36:30;96487.88;;;2.25;90.99
72636;BME280;60679;48.888;15.544;2024-03-07T05:38:56;96485.56;;;2.30;90.96
72636;BME280;60679;48.888;15.544;2024-03-07T05:41:21;96481.22;;;2.29;90.86
72636;BME280;60679;48.888;15.544;2024-03-07T05:43:47;96492.69;;;2.38;90.91
72636;BME280;60679;48.888;15.544;2024-03-07T05:46:12;96494.03;;;2.42;91.00
72636;BME280;60679;48.888;15.544;2024-03-07T05:48:38;96500.19;;;2.42;90.81
72636;BME280;60679;48.888;15.544;2024-03-07T05:51:03;96487.38;;;2.38;90.91
72636;BME280;60679;48.888;15.544;2024-03-07T05:53:29;96503.69;;;2.51;90.71
72636;BME280;60679;48.888;15.544;2024-03-07T05:55:55;96500.69;;;2.54;90.83
72636;BME280;60679;48.888;15.544;2024-03-07T05:58:20;96490.03;;;2.54;90.59
72636;BME280;60679;48.888;15.544;2024-03-07T06:00:46;96503.69;;;2.59;90.59
72636;BME280;60679;48.888;15.544;2024-03-07T06:03:18;96495.69;;;2.59;90.73
72636;BME280;60679;48.888;15.544;2024-03-07T06:05:50;96503.47;;;2.68;90.61
72636;BME280;60679;48.888;15.544;2024-03-07T06:08:19;96504.66;;;2.66;90.67
72636;BME280;60679;48.888;15.544;2024-03-07T06:10:45;96505.69;;;2.65;90.67
72636;BME280;60679;48.888;15.544;2024-03-07T06:13:13;96510.69;;;2.68;90.45
72636;BME280;60679;48.888;15.544;2024-03-07T06:15:39;96511.00;;;2.73;90.35
72636;BME280;60679;48.888;15.544;2024-03-07T06:18:06;96493.50;;;2.70;90.39
72636;BME280;60679;48.888;15.544;2024-03-07T06:20:33;96514.47;;;2.81;90.38
72636;BME280;60679;48.888;15.544;2024-03-07T06:23:01;96501.97;;;2.82;90.19
72636;BME280;60679;48.888;15.544;2024-03-07T06:25:36;96502.44;;;2.85;90.25
72636;BME280;60679;48.888;15.544;2024-03-07T06:28:03;96507.94;;;2.92;90.10
72636;BME280;60679;48.888;15.544;2024-03-07T06:30:40;96505.25;;;3.00;90.08
72636;BME280;60679;48.888;15.544;2024-03-07T06:33:10;96494.09;;;2.97;89.90
72636;BME280;60679;48.888;15.544;2024-03-07T06:35:36;96504.06;;;3.03;89.89
72636;BME280;60679;48.888;15.544;2024-03-07T06:38:04;96498.28;;;2.99;89.92
72636;BME280;60679;48.888;15.544;2024-03-07T06:40:31;96505.75;;;3.04;89.95
72636;BME280;60679;48.888;15.544;2024-03-07T06:42:58;96498.94;;;3.01;89.93
72636;BME280;60679;48.888;15.544;2024-03-07T06:45:24;96506.59;;;3.04;89.88
72636;BME280;60679;48.888;15.544;2024-03-07T06:47:50;96504.06;;;3.03;89.90
72636;BME280;60679;48.888;15.544;2024-03-07T06:50:18;96511.94;;;3.04;89.90
72636;BME280;60679;48.888;15.544;2024-03-07T06:52:48;96506.94;;;3.01;89.90
72636;BME280;60679;48.888;15.544;2024-03-07T06:55:17;96519.25;;;3.02;89.84
72636;BME280;60679;48.888;15.544;2024-03-07T06:57:44;96509.75;;;3.00;89.91
72636;BME280;60679;48.888;15.544;2024-03-07T07:00:13;96510.28;;;2.95;89.74
72636;BME280;60679;48.888;15.544;2024-03-07T14:11:04;96465.50;;;4.65;86.99
72636;BME280;60679;48.888;15.544;2024-03-07T14:14:06;96465.09;;;4.68;86.99
72636;BME280;60679;48.888;15.544;2024-03-07T14:28:31;96455.97;;;4.63;86.83
72636;BME280;60679;48.888;15.544;2024-03-07T14:30:59;96455.53;;;4.59;86.90
72636;BME280;60679;48.888;15.544;2024-03-07T14:33:48;96468.22;;;4.57;87.16
72636;BME280;60679;48.888;15.544;2024-03-07T14:36:16;96451.53;;;4.55;87.06
72636;BME280;60679;48.888;15.544;2024-03-07T14:38:51;96457.53;;;4.57;87.17
72636;BME280;60679;48.888;15.544;2024-03-07T14:41:20;96452.00;;;4.59;86.98
72636;BME280;60679;48.888;15.544;2024-03-07T14:43:48;96459.19;;;4.58;87.21
72636;BME280;60679;48.888;15.544;2024-03-07T14:46:15;96453.00;;;4.58;87.19
72636;BME280;60679;48.888;15.544;2024-03-07T14:48:42;96457.72;;;4.56;86.96
72636;BME280;60679;48.888;15.544;2024-03-07T14:51:11;96463.22;;;4.54;87.19
72636;BME280;60679;48.888;15.544;2024-03-07T14:53:39;96453.09;;;4.50;87.27
72636;BME280;60679;48.888;15.544;2024-03-07T14:56:06;96459.00;;;4.45;87.55
72636;BME280;60679;48.888;15.544;2024-03-07T14:58:31;96452.53;;;4.40;87.32
72636;BME280;60679;48.888;15.544;2024-03-07T15:00:56;96457.22;;;4.38;87.43
72636;BME280;60679;48.888;15.544;2024-03-07T15:03:22;96458.41;;;4.35;87.41
72636;BME280;60679;48.888;15.544;2024-03-07T15:05:47;96456.75;;;4.34;87.46
72636;BME280;60679;48.888;15.544;2024-03-07T15:08:13;96463.09;;;4.33;87.43
72636;BME280;60679;48.888;15.544;2024-03-07T15:10:44;96458.13;;;4.30;87.19
72636;BME280;60679;48.888;15.544;2024-03-07T15:13:12;96459.66;;;4.25;87.25
72636;BME280;60679;48.888;15.544;2024-03-07T15:15:38;96462.91;;;4.20;87.29
72636;BME280;60679;48.888;15.544;2024-03-07T15:18:05;96462.78;;;4.14;87.30
72636;BME280;60679;48.888;15.544;2024-03-07T15:20:30;96470.16;;;4.12;87.40
72636;BME280;60679;48.888;15.544;2024-03-07T15:23:00;96465.03;;;4.02;87.50
72636;BME280;60679;48.888;15.544;2024-03-07T15:25:26;96468.59;;;3.94;87.76
72636;BME280;60679;48.888;15.544;2024-03-07T15:27:54;96467.47;;;3.89;87.74
72636;BME280;60679;48.888;15.544;2024-03-07T15:30:26;96470.78;;;3.91;88.02
72636;BME280;60679;48.888;15.544;2024-03-07T15:32:58;96475.13;;;3.92;87.73
72636;BME280;60679;48.888;15.544;2024-03-07T15:35:26;96477.81;;;3.92;87.76
72636;BME280;60679;48.888;15.544;2024-03-07T15:37:52;96472.81;;;3.89;87.96
72636;BME280;60679;48.888;15.544;2024-03-07T15:40:19;96467.63;;;3.87;87.58
72636;BME280;60679;48.888;15.544;2024-03-07T15:42:55;96477.97;;;3.90;87.57
72636;BME280;60679;48.888;15.544;2024-03-07T15:45:23;96478.81;;;3.91;87.60
72636;BME280;60679;48.888;15.544;2024-03-07T15:50:20;96475.69;;;3.79;87.72
72636;BME280;60679;48.888;15.544;2024-03-07T15:52:47;96477.44;;;3.72;87.85
72636;BME280;60679;48.888;15.544;2024-03-07T15:55:13;96472.59;;;3.68;87.83
72636;BME280;60679;48.888;15.544;2024-03-07T15:57:50;96475.16;;;3.61;87.98
72636;BME280;60679;48.888;15.544;2024-03-07T16:00:19;96468.34;;;3.50;87.84
72636;BME280;60679;48.888;15.544;2024-03-07T16:02:53;96472.41;;;3.46;88.02
72636;BME280;60679;48.888;15.544;2024-03-07T16:05:24;96471.06;;;3.42;87.92
72636;BME280;60679;48.888;15.544;2024-03-07T16:07:54;96479.59;;;3.38;87.93
72636;BME280;60679;48.888;15.544;2024-03-07T16:10:22;96474.78;;;3.33;87.84
72636;BME280;60679;48.888;15.544;2024-03-07T16:12:53;96482.13;;;3.31;88.07
72636;BME280;60679;48.888;15.544;2024-03-07T16:15:19;96477.97;;;3.29;88.00
72636;BME280;60679;48.888;15.544;2024-03-07T16:17:51;96479.16;;;3.26;88.09
72636;BME280;60679;48.888;15.544;2024-03-07T16:20:18;96490.81;;;3.25;88.21
72636;BME280;60679;48.888;15.544;2024-03-07T16:22:46;96488.50;;;3.22;88.06
72636;BME280;60679;48.888;15.544;2024-03-07T16:25:14;96494.53;;;3.16;88.09
72636;BME280;60679;48.888;15.544;2024-03-07T16:27:44;96483.03;;;3.08;87.90
72636;BME280;60679;48.888;15.544;2024-03-07T16:30:20;96494.59;;;3.00;88.13
72636;BME280;60679;48.888;15.544;2024-03-07T16:32:46;96494.09;;;2.97;88.03
72636;BME280;60679;48.888;15.544;2024-03-07T16:35:13;96499.75;;;2.93;88.24
72636;BME280;60679;48.888;15.544;2024-03-07T16:37:45;96496.44;;;2.91;88.09
72636;BME280;60679;48.888;15.544;2024-03-07T16:40:13;96500.13;;;2.90;88.13
72636;BME280;60679;48.888;15.544;2024-03-07T16:42:43;96496.31;;;2.85;88.37
72636;BME280;60679;48.888;15.544;2024-03-07T16:45:12;96499.31;;;2.82;88.22
72636;BME280;60679;48.888;15.544;2024-03-07T16:47:42;96507.81;;;2.77;88.36
72636;BME280;60679;48.888;15.544;2024-03-07T16:50:08;96502.66;;;2.76;88.37
72636;BME280;60679;48.888;15.544;2024-03-07T16:52:36;96501.16;;;2.73;88.34
72636;BME280;60679;48.888;15.544;2024-03-07T16:55:06;96508.47;;;2.71;88.40
72636;BME280;60679;48.888;15.544;2024-03-07T16:57:41;96502.50;;;2.69;88.42
72636;BME280;60679;48.888;15.544;2024-03-07T17:00:08;96516.00;;;2.68;88.29
72636;BME280;60679;48.888;15.544;2024-03-07T17:02:45;96514.66;;;2.64;88.38
72636;BME280;60679;48.888;15.544;2024-03-07T17:05:11;96514.16;;;2.60;88.37
72636;BME280;60679;48.888;15.544;2024-03-07T17:07:44;96519.81;;;2.57;88.35
72636;BME280;60679;48.888;15.544;2024-03-07T17:10:10;96522.03;;;2.54;88.29
72636;BME280;60679;48.888;15.544;2024-03-07T17:12:43;96521.19;;;2.53;88.26
72636;BME280;60679;48.888;15.544;2024-03-07T17:15:13;96509.88;;;2.51;88.42
72636;BME280;60679;48.888;15.544;2024-03-07T17:17:43;96506.50;;;2.49;88.41
72636;BME280;60679;48.888;15.544;2024-03-07T17:20:11;96504.88;;;2.48;88.47
72636;BME280;60679;48.888;15.544;2024-03-07T17:22:37;96518.34;;;2.47;88.43
72636;BME280;60679;48.888;15.544;2024-03-07T17:25:03;96522.84;;;2.46;88.39
72636;BME280;60679;48.888;15.544;2024-03-07T17:27:30;96518.66;;;2.44;88.28
72636;BME280;60679;48.888;15.544;2024-03-07T17:29:55;96537.31;;;2.44;88.52
72636;BME280;60679;48.888;15.544;2024-03-07T17:32:21;96530.50;;;2.41;88.60
72636;BME280;60679;48.888;15.544;2024-03-07T17:34:46;96528.81;;;2.40;88.46
72636;BME280;60679;48.888;15.544;2024-03-07T17:37:13;96533.34;;;2.40;88.28
72636;BME280;60679;48.888;15.544;2024-03-07T17:39:42;96538.81;;;2.38;88.38
72636;BME280;60679;48.888;15.544;2024-03-07T17:42:09;96538.69;;;2.40;88.46
72636;BME280;60679;48.888;15.544;2024-03-07T17:44:39;96543.50;;;2.36;88.42
72636;BME280;60679;48.888;15.544;2024-03-07T17:47:05;96545.66;;;2.32;88.62
72636;BME280;60679;48.888;15.544;2024-03-07T17:49:38;96547.00;;;2.28;88.82
72636;BME280;60679;48.888;15.544;2024-03-07T17:52:10;96549.81;;;2.27;88.66
72636;BME280;60679;48.888;15.544;2024-03-07T17:54:41;96545.66;;;2.24;88.59
72636;BME280;60679;48.888;15.544;2024-03-07T17:57:16;96541.63;;;2.20;88.72
72636;BME280;60679;48.888;15.544;2024-03-07T17:59:45;96546.16;;;2.20;88.57
72636;BME280;60679;48.888;15.544;2024-03-07T18:02:14;96548.97;;;2.18;88.68
72636;BME280;60679;48.888;15.544;2024-03-07T18:04:42;96547.16;;;2.19;88.56
72636;BME280;60679;48.888;15.544;2024-03-07T18:07:20;96549.16;;;2.17;88.76
72636;BME280;60679;48.888;15.544;2024-03-07T18:09:50;96545.97;;;2.13;88.63
72636;BME280;60679;48.888;15.544;2024-03-07T18:12:24;96550.47;;;2.13;88.76
72636;BME280;60679;48.888;15.544;2024-03-07T18:14:51;96553.97;;;2.13;88.60
72636;BME280;60679;48.888;15.544;2024-03-07T18:17:17;96554.13;;;2.12;88.47
72636;BME280;60679;48.888;15.544;2024-03-07T18:19:44;96545.13;;;2.13;88.52
72636;BME280;60679;48.888;15.544;2024-03-07T18:22:10;96555.47;;;2.08;88.74
72636;BME280;60679;48.888;15.544;2024-03-07T18:24:35;96558.13;;;2.08;88.64
72636;BME280;60679;48.888;15.544;2024-03-07T18:27:00;96554.81;;;2.06;88.61
72636;BME280;60679;48.888;15.544;2024-03-07T18:29:45;96554.81;;;2.06;88.69
72636;BME280;60679;48.888;15.544;2024-03-07T18:32:12;96554.94;;;2.04;88.59
72636;BME280;60679;48.888;15.544;2024-03-07T18:34:37;96562.09;;;2.04;88.73
72636;BME280;60679;48.888;15.544;2024-03-07T18:37:04;96553.63;;;2.00;88.67
72636;BME280;60679;48.888;15.544;2024-03-07T18:39:33;96555.44;;;2.00;88.75
72636;BME280;60679;48.888;15.544;2024-03-07T18:41:58;96553.78;;;1.99;88.74
72636;BME280;60679;48.888;15.544;2024-03-07T18:44:23;96558.94;;;2.00;88.65
72636;BME280;60679;48.888;15.544;2024-03-07T18:46:49;96561.25;;;1.95;88.72
72636;BME280;60679;48.888;15.544;2024-03-07T18:49:16;96559.75;;;1.93;88.51
72636;BME280;60679;48.888;15.544;2024-03-07T18:51:43;96563.25;;;1.93;88.94
72636;BME280;60679;48.888;15.544;2024-03-07T18:54:16;96559.59;;;1.94;88.78
72636;BME280;60679;48.888;15.544;2024-03-07T18:56:42;96559.94;;;1.91;88.65
72636;BME280;60679;48.888;15.544;2024-03-07T18:59:07;96562.59;;;1.91;88.90
72636;BME280;60679;48.888;15.544;2024-03-07T19:01:33;96553.09;;;1.89;88.80
72636;BME280;60679;48.888;15.544;2024-03-07T19:04:01;96559.75;;;1.93;88.75
72636;BME280;60679;48.888;15.544;2024-03-07T19:06:28;96559.75;;;1.93;88.84
72636;BME280;60679;48.888;15.544;2024-03-07T19:08:55;96561.56;;;1.92;88.83
72636;BME280;60679;48.888;15.544;2024-03-07T19:11:21;96566.75;;;1.94;88.68
72636;BME280;60679;48.888;15.544;2024-03-07T19:13:46;96555.44;;;1.92;88.88
72636;BME280;60679;48.888;15.544;2024-03-07T19:16:11;96557.59;;;1.88;88.70
72636;BME280;60679;48.888;15.544;2024-03-07T19:18:39;96560.56;;;1.85;88.79
72636;BME280;60679;48.888;15.544;2024-03-07T19:21:05;96557.72;;;1.87;88.87
72636;BME280;60679;48.888;15.544;2024-03-07T19:23:34;96554.09;;;1.88;88.68
72636;BME280;60679;48.888;15.544;2024-03-07T19:26:01;96560.25;;;1.88;88.61
72636;BME280;60679;48.888;15.544;2024-03-07T19:28:29;96553.44;;;1.86;88.80
72636;BME280;60679;48.888;15.544;2024-03-07T19:30:54;96554.25;;;1.86;88.87
72636;BME280;60679;48.888;15.544;2024-03-07T19:33:20;96552.59;;;1.85;88.77
72636;BME280;60679;48.888;15.544;2024-03-07T19:35:51;96550.91;;;1.84;88.77
72636;BME280;60679;48.888;15.544;2024-03-07T19:38:20;96549.91;;;1.85;88.84
72636;BME280;60679;48.888;15.544;2024-03-07T19:40:46;96557.06;;;1.85;88.78
72636;BME280;60679;48.888;15.544;2024-03-07T19:43:11;96561.41;;;1.86;88.96
72636;BME280;60679;48.888;15.544;2024-03-07T19:45:38;96559.72;;;1.85;88.72
72636;BME280;60679;48.888;15.544;2024-03-07T19:48:05;96557.25;;;1.83;88.84
72636;BME280;60679;48.888;15.544;2024-03-07T19:50:30;96558.91;;;1.84;88.87
72636;BME280;60679;48.888;15.544;2024-03-07T19:53:02;96560.22;;;1.80;88.62
72636;BME280;60679;48.888;15.544;2024-03-07T19:55:27;96559.22;;;1.81;88.83
72636;BME280;60679;48.888;15.544;2024-03-07T19:57:57;96561.06;;;1.81;88.78
72636;BME280;60679;48.888;15.544;2024-03-07T20:00:23;96555.56;;;1.82;88.95
72636;BME280;60679;48.888;15.544;2024-03-07T20:02:48;96558.91;;;1.84;88.79
72636;BME280;60679;48.888;15.544;2024-03-07T20:05:14;96564.22;;;1.84;88.90
72636;BME280;60679;48.888;15.544;2024-03-07T20:07:45;96556.22;;;1.84;88.84
72636;BME280;60679;48.888;15.544;2024-03-07T20:10:10;96560.72;;;1.84;88.70
72636;BME280;60679;48.888;15.544;2024-03-07T20:12:40;96562.41;;;1.85;88.82
72636;BME280;60679;48.888;15.544;2024-03-07T20:15:10;96562.41;;;1.85;88.69
72636;BME280;60679;48.888;15.544;2024-03-07T20:17:39;96560.56;;;1.85;88.72
72636;BME280;60679;48.888;15.544;2024-03-07T20:20:06;96565.91;;;1.85;88.67
72636;BME280;60679;48.888;15.544;2024-03-07T20:22:48;96566.72;;;1.86;88.70
72636;BME280;60679;48.888;15.544;2024-03-07T20:25:17;96558.56;;;1.87;88.79